Time;durP1;ratioP1;P1;durP2;ratioP2;P2;SDS_P1;SDS_P2;PMS_P1;PMS_P2;Temp;Humidity;BMP_temperature;BMP_pressure;BME280_temperature;BME280_humidity;BME280_pressure;Samples;Min_cycle;Max_cycle;Signal;HPM_P1;HPM_P2
2022/11/21 00:02:29;;;;;;;;;;;;;;;;;;8453925;27;27195;-76
2022/11/21 00:06:29;;;;;;;;;;;;;;;;;;8452503;27;28236;-76
2022/11/21 00:10:29;;;;;;;;;;;;;;;;;;8443875;27;28380;-76
2022/11/21 00:14:30;;;;;;;;;;;;;;;;;;8450502;27;28323;-75
2022/11/21 00:18:30;;;;;;;;;;;;;;;;;;8449860;27;28213;-75
2022/11/21 00:22:30;;;;;;;;;;;;;;;;;;8447216;27;29127;-75
2022/11/21 00:26:30;;;;;;;;;;;;;;;;;;8446436;27;27267;-75
2022/11/21 00:30:30;;;;;;;;;;;;;;;;;;8448107;27;29048;-74
2022/11/21 00:34:30;;;;;;;;;;;;;;;;;;8454890;27;28870;-74
2022/11/21 00:38:30;;;;;;;;;;;;;;;;;;8445999;27;28157;-74
2022/11/21 00:42:30;;;;;;;;;;;;;;;;;;8443831;27;27105;-75
2022/11/21 00:46:30;;;;;;;;;;;;;;;;;;8447435;27;27457;-75
2022/11/21 00:50:30;;;;;;;;;;;;;;;;;;8441882;27;27802;-75
2022/11/21 00:54:30;;;;;;;;;;;;;;;;;;8446201;27;28591;-75
2022/11/21 00:58:30;;;;;;;;;;;;;;;;;;8445484;27;27722;-75
2022/11/21 01:02:31;;;;;;;;;;;;;;;;;;8444212;27;28546;-74
2022/11/21 01:06:31;;;;;;;;;;;;;;;;;;8446668;27;27456;-74
2022/11/21 01:10:31;;;;;;;;;;;;;;;;;;8447426;27;28630;-75
2022/11/21 01:14:31;;;;;;;;;;;;;;;;;;8449112;27;27144;-75
2022/11/21 01:18:31;;;;;;;;;;;;;;;;;;8446680;27;27356;-73
2022/11/21 01:22:31;;;;;;;;;;;;;;;;;;8441871;27;28835;-74
2022/11/21 01:26:36;;;;;;;;;;;;;;;;;;8444473;27;29664;-75
2022/11/21 01:30:37;;;;;;;;;;;;;;;;;;8445203;27;27444;-76
2022/11/21 01:34:37;;;;;;;;;;;;;;;;;;8445749;27;27105;-74
2022/11/21 01:38:37;;;;;;;;;;;;;;;;;;8442053;27;27289;-75
2022/11/21 01:42:37;;;;;;;;;;;;;;;;;;8444047;27;28904;-75
2022/11/21 01:46:37;;;;;;;;;;;;;;;;;;8453580;27;27537;-74
2022/11/21 01:50:37;;;;;;;;;;;;;;;;;;8441952;27;27319;-75
2022/11/21 01:54:37;;;;;;;;;;;;;;;;;;8446296;27;28690;-75
2022/11/21 01:58:37;;;;;;;;;;;;;;;;;;8448398;27;28530;-73
2022/11/21 02:02:37;;;;;;;;;;;;;;;;;;8451554;27;28775;-73
2022/11/21 02:06:37;;;;;;;;;;;;;;;;;;8455854;27;27172;-72
2022/11/21 02:10:38;;;;;;;;;;;;;;;;;;8455340;27;28267;-74
2022/11/21 02:14:38;;;;;;;;;;;;;;;;;;8452441;27;27475;-75
2022/11/21 02:18:38;;;;;;;;;;;;;;;;;;8455330;27;27651;-75
2022/11/21 02:22:38;;;;;;;;;;;;;;;;;;8451933;27;28011;-76
2022/11/21 02:26:38;;;;;;;;;;;;;;;;;;8461918;27;28607;-74
2022/11/21 02:30:38;;;;;;;;;;;;;;;;;;8451291;27;28058;-74
2022/11/21 02:34:38;;;;;;;;;;;;;;;;;;8449113;27;27617;-74
2022/11/21 02:38:38;;;;;;;;;;;;;;;;;;8454450;27;27334;-74
2022/11/21 02:42:38;;;;;;;;;;;;;;;;;;8454864;27;27915;-74
2022/11/21 02:46:38;;;;;;;;;;;;;;;;;;8454518;27;27346;-74
2022/11/21 02:50:38;;;;;;;;;;;;;;;;;;8453257;27;28030;-74
2022/11/21 02:54:39;;;;;;;;;;;;;;;;;;8456469;27;28246;-75
2022/11/21 02:58:39;;;;;;;;;;;;;;;;;;8451060;27;27425;-74
2022/11/21 03:02:39;;;;;;;;;;;;;;;;;;8456481;27;28069;-75
2022/11/21 03:06:39;;;;;;;;;;;;;;;;;;8456913;27;29031;-75
2022/11/21 03:10:39;;;;;;;;;;;;;;;;;;8449421;27;27458;-75
2022/11/21 03:14:39;;;;;;;;;;;;;;;;;;8446928;27;28775;-74
2022/11/21 03:18:39;;;;;;;;;;;;;;;;;;8456533;27;27645;-73
2022/11/21 03:22:39;;;;;;;;;;;;;;;;;;8451744;27;27227;-73
2022/11/21 03:26:39;;;;;;;;;;;;;;;;;;8447083;27;27198;-75
2022/11/21 03:30:39;;;;;;;;;;;;;;;;;;8455488;27;28847;-76
2022/11/21 03:34:40;;;;;;;;;;;;;;;;;;8452037;27;28523;-75
2022/11/21 03:38:40;;;;;;;;;;;;;;;;;;8450751;27;28707;-75
2022/11/21 03:42:40;;;;;;;;;;;;;;;;;;8455548;27;28604;-75
2022/11/21 03:46:40;;;;;;;;;;;;;;;;;;8443986;27;28041;-75
2022/11/21 03:50:40;;;;;;;;;;;;;;;;;;8455328;27;28759;-74
2022/11/21 03:54:40;;;;;;;;;;;;;;;;;;8450068;27;27130;-75
2022/11/21 03:58:40;;;;;;;;;;;;;;;;;;8445226;27;27582;-75
2022/11/21 04:02:40;;;;;;;;;;;;;;;;;;8447238;27;27652;-73
2022/11/21 04:06:40;;;;;;;;;;;;;;;;;;8447214;27;29261;-75
2022/11/21 04:10:40;;;;;;;;;;;;;;;;;;8448763;27;27410;-75
2022/11/21 04:14:40;;;;;;;;;;;;;;;;;;8453626;27;29649;-74
2022/11/21 04:18:40;;;;;;;;;;;;;;;;;;8444648;27;27518;-74
2022/11/21 04:22:41;;;;;;;;;;;;;;;;;;8442578;27;27748;-75
2022/11/21 04:26:41;;;;;;;;;;;;;;;;;;8444578;27;28807;-74
2022/11/21 04:30:41;;;;;;;;;;;;;;;;;;8444566;27;27908;-74
2022/11/21 04:34:41;;;;;;;;;;;;;;;;;;8448313;27;28005;-75
2022/11/21 04:38:41;;;;;;;;;;;;;;;;;;8448452;27;27638;-74
2022/11/21 04:42:41;;;;;;;;;;;;;;;;;;8442633;27;27098;-74
2022/11/21 04:46:41;;;;;;;;;;;;;;;;;;8449318;27;28060;-75
2022/11/21 04:50:41;;;;;;;;;;;;;;;;;;8448011;27;28130;-75
2022/11/21 04:54:41;;;;;;;;;;;;;;;;;;8451627;27;28537;-74
2022/11/21 04:58:41;;;;;;;;;;;;;;;;;;8448419;27;27416;-73
2022/11/21 05:02:41;;;;;;;;;;;;;;;;;;8440968;27;27672;-73
2022/11/21 05:06:41;;;;;;;;;;;;;;;;;;8442895;27;27343;-75
2022/11/21 05:15:00;;;;;;;;;;;;;;;;;;8440195;27;27305;-74
2022/11/21 05:19:01;;;;;;;;;;;;;;;;;;8445948;27;27428;-75
2022/11/21 05:23:01;;;;;;;;;;;;;;;;;;8446834;27;27617;-74
2022/11/21 05:27:01;;;;;;;;;;;;;;;;;;8444596;27;27447;-74
2022/11/21 05:31:01;;;;;;;;;;;;;;;;;;8448712;27;29003;-75
2022/11/21 05:35:01;;;;;;;;;;;;;;;;;;8437729;27;27827;-74
2022/11/21 05:39:01;;;;;;;;;;;;;;;;;;8443854;27;27404;-74
2022/11/21 05:47:20;;;;;;;;;;;;;;;;;;8452739;27;27323;-74
2022/11/21 05:51:20;;;;;;;;;;;;;;;;;;8452270;27;27700;-74
2022/11/21 05:55:20;;;;;;;;;;;;;;;;;;8451857;27;27266;-72
2022/11/21 05:59:20;;;;;;;;;;;;;;;;;;8458641;27;28518;-74
2022/11/21 06:03:26;;;;;;;;;;;;;;;;;;8452221;27;28752;-74
2022/11/21 06:07:26;;;;;;;;;;;;;;;;;;8448037;27;28942;-74
2022/11/21 06:11:26;;;;;;;;;;;;;;;;;;8452081;27;27899;-73
2022/11/21 06:15:26;;;;;;;;;;;;;;;;;;8448667;27;27499;-74
2022/11/21 06:19:27;;;;;;;;;;;;;;;;;;8449064;27;27156;-74
2022/11/21 06:23:27;;;;;;;;;;;;;;;;;;8449198;27;27525;-74
2022/11/21 06:27:27;;;;;;;;;;;;;;;;;;8447430;27;27748;-74
2022/11/21 06:31:27;;;;;;;;;;;;;;;;;;8457141;27;27200;-74
2022/11/21 06:35:27;;;;;;;;;;;;;;;;;;8455212;27;28591;-74
2022/11/21 06:39:27;;;;;;;;;;;;;;;;;;8448338;27;27330;-72
2022/11/21 06:43:27;;;;;;;;;;;;;;;;;;8452589;27;27210;-74
2022/11/21 06:47:27;;;;;;;;;;;;;;;;;;8448962;27;28162;-74
2022/11/21 06:51:27;;;;;;;;;;;;;;;;;;8446321;27;28568;-74
2022/11/21 06:55:28;;;;;;;;;;;;;;;;;;8455667;27;27391;-74
2022/11/21 06:59:28;;;;;;;;;;;;;;;;;;8449094;27;28513;-74
2022/11/21 07:03:28;;;;;;;;;;;;;;;;;;8447664;27;27915;-74
2022/11/21 07:07:28;;;;;;;;;;;;;;;;;;8452911;27;27229;-74
2022/11/21 07:11:29;;;;;;;;;;;;;;;;;;8450613;27;27417;-75
2022/11/21 07:15:29;;;;;;;;;;;;;;;;;;8454788;27;27296;-74
2022/11/21 07:19:29;;;;;;;;;;;;;;;;;;8448584;27;27530;-75
2022/11/21 07:23:29;;;;;;;;;;;;;;;;;;8445253;27;27271;-73
2022/11/21 07:27:29;;;;;;;;;;;;;;;;;;8450703;27;28585;-74
2022/11/21 07:31:29;;;;;;;;;;;;;;;;;;8445214;27;27586;-73
2022/11/21 07:35:29;;;;;;;;;;;;;;;;;;8448162;27;27098;-74
2022/11/21 07:39:29;;;;;;;;;;;;;;;;;;8449067;27;27244;-75
2022/11/21 07:43:29;;;;;;;;;;;;;;;;;;8447237;27;27576;-74
2022/11/21 07:47:29;;;;;;;;;;;;;;;;;;8453255;27;27822;-74
2022/11/21 07:51:29;;;;;;;;;;;;;;;;;;8448389;27;27458;-74
2022/11/21 07:55:29;;;;;;;;;;;;;;;;;;8446955;27;27685;-73
2022/11/21 07:59:29;;;;;;;;;;;;;;;;;;8446041;27;28339;-74
2022/11/21 08:03:30;;;;;;;;;;;;;;;;;;8454389;27;27776;-73
2022/11/21 08:07:30;;;;;;;;;;;;;;;;;;8450630;27;28584;-73
2022/11/21 08:11:31;;;;;;;;;;;;;;;;;;8445264;27;27314;-73
2022/11/21 08:15:31;;;;;;;;;;;;;;;;;;8447345;27;27374;-73
2022/11/21 08:19:31;;;;;;;;;;;;;;;;;;8449086;27;27326;-72
2022/11/21 08:23:31;;;;;;;;;;;;;;;;;;8449474;27;27096;-72
2022/11/21 08:27:31;;;;;;;;;;;;;;;;;;8448778;27;27676;-74
2022/11/21 08:31:31;;;;;;;;;;;;;;;;;;8444084;27;29219;-74
2022/11/21 08:35:31;;;;;;;;;;;;;;;;;;8442095;27;27335;-74
2022/11/21 08:39:31;;;;;;;;;;;;;;;;;;8446927;27;27326;-71
2022/11/21 08:43:31;;;;;;;;;;;;;;;;;;8446202;27;28189;-74
2022/11/21 08:47:31;;;;;;;;;;;;;;;;;;8446135;27;28293;-73
2022/11/21 08:51:32;;;;;;;;;;;;;;;;;;8444215;27;27233;-73
2022/11/21 08:55:32;;;;;;;;;;;;;;;;;;8447662;27;27326;-73
2022/11/21 08:59:32;;;;;;;;;;;;;;;;;;8444857;27;27227;-72
2022/11/21 09:03:32;;;;;;;;;;;;;;;;;;8454763;27;27522;-73
2022/11/21 09:07:32;;;;;;;;;;;;;;;;;;8455812;27;27443;-73
2022/11/21 09:11:32;;;;;;;;;;;;;;;;;;8453479;27;28493;-73
2022/11/21 09:19:51;;;;;;;;;;;;;;;;;;8446719;27;28141;-75
2022/11/21 09:23:53;;;;;;;;;;;;;;;;;;8467013;27;48777;-72
2022/11/21 09:27:53;;;;;;;;;;;;;;;;;;8467759;27;28475;-73
2022/11/21 09:31:53;;;;;;;;;;;;;;;;;;8480830;27;27752;-73
2022/11/21 09:35:53;;;;;;;;;;;;;;;;;;8483550;27;27129;-74
2022/11/21 09:39:53;;;;;;;;;;;;;;;;;;8465104;27;28713;-74
2022/11/21 09:43:53;;;;;;;;;;;;;;;;;;8482565;27;27319;-71
2022/11/21 09:47:53;;;;;;;;;;;;;;;;;;8479909;27;27075;-74
2022/11/21 09:51:53;;;;;;;;;;;;;;;;;;8480978;27;27227;-73
2022/11/21 09:55:53;;;;;;;;;;;;;;;;;;8488130;27;27355;-73
2022/11/21 09:59:53;;;;;;;;;;;;;;;;;;8478132;27;27334;-74
2022/11/21 10:03:54;;;;;;;;;;;;;;;;;;8482445;27;27486;-74
2022/11/21 10:07:54;;;;;;;;;;;;;;;;;;8485433;27;27378;-73
2022/11/21 10:16:13;;;;;;;;;;;;;;;;;;8475328;27;28117;-74
2022/11/21 10:20:13;;;;;;;;;;;;;;;;;;8481495;27;27098;-74
2022/11/21 10:24:13;;;;;;;;;;;;;;;;;;8481593;27;27147;-74
2022/11/21 10:28:13;;;;;;;;;;;;;;;;;;8483273;27;28193;-74
2022/11/21 10:32:13;;;;;;;;;;;;;;;;;;8486557;27;27819;-74
2022/11/21 10:36:13;;;;;;;;;;;;;;;;;;8480716;27;27558;-72
2022/11/21 10:40:13;;;;;;;;;;;;;;;;;;8484570;27;27202;-74
2022/11/21 10:48:32;;;;;;;;;;;;;;;;;;8485738;27;27902;-74
2022/11/21 10:52:32;;;;;;;;;;;;;;;;;;8484006;27;27334;-73
2022/11/21 10:56:32;;;;;;;;;;;;;;;;;;8480832;27;28312;-74
2022/11/21 11:00:32;;;;;;;;;;;;;;;;;;8470002;27;28938;-74
2022/11/21 11:04:33;;;;;;;;;;;;;;;;;;8483911;27;27406;-74
2022/11/21 11:08:33;;;;;;;;;;;;;;;;;;8481877;27;28046;-74
2022/11/21 11:13:32;;;;;;;;;;;;;;;;;;8483543;27;27608;-74
2022/11/21 11:16:59;;;;;;;;;;;;;;;;;;8486764;27;27169;-75
2022/11/21 11:20:59;;;;;;;;;;;;;;;;;;8490900;27;28724;-75
2022/11/21 11:24:59;;;;;;;;;;;;;;;;;;8490557;27;27364;-74
2022/11/21 11:28:59;;;;;;;;;;;;;;;;;;8489619;27;27541;-74
2022/11/21 11:32:59;;;;;;;;;;;;;;;;;;8486300;27;27345;-73
2022/11/21 11:36:59;;;;;;;;;;;;;;;;;;8485913;27;27138;-73
2022/11/21 11:40:59;;;;;;;;;;;;;;;;;;8487953;27;27296;-72
2022/11/21 11:49:18;;;;;;;;;;;;;;;;;;8477029;27;27392;-75
2022/11/21 11:53:18;;;;;;;;;;;;;;;;;;8485742;27;27562;-74
2022/11/21 11:57:19;;;;;;;;;;;;;;;;;;8483545;27;27700;-72
2022/11/21 12:01:19;;;;;;;;;;;;;;;;;;8481852;27;27575;-73
2022/11/21 12:05:19;;;;;;;;;;;;;;;;;;8483794;27;27550;-74
2022/11/21 12:09:19;;;;;;;;;;;;;;;;;;8481769;27;27289;-73
2022/11/21 12:13:19;;;;;;;;;;;;;;;;;;8482457;27;27075;-73
2022/11/21 12:17:19;;;;;;;;;;;;;;;;;;8482863;27;27360;-73
2022/11/21 12:21:20;;;;;;;;;;;;;;;;;;8464902;27;28532;-73
2022/11/21 12:25:20;;;;;;;;;;;;;;;;;;8466457;27;28666;-74
2022/11/21 12:29:20;;;;;;;;;;;;;;;;;;8481961;27;27155;-75
2022/11/21 12:33:21;;;;;;;;;;;;;;;;;;8486332;27;27335;-73
2022/11/21 12:37:21;;;;;;;;;;;;;;;;;;8484134;27;27454;-74
2022/11/21 12:45:40;;;;;;;;;;;;;;;;;;8476699;27;27287;-74
2022/11/21 12:58:18;;;;;;;;;;;;;;;;;;8483514;27;27141;-73
2022/11/21 13:02:18;;;;;;;;;;;;;;;;;;8464445;27;28521;-74
2022/11/21 13:06:18;;;;;;;;;;;;;;;;;;8467097;27;28460;-73
2022/11/21 13:10:18;;;;;;;;;;;;;;;;;;8464141;27;27341;-74
2022/11/21 13:14:18;;;;;;;;;;;;;;;;;;8485162;27;27690;-73
2022/11/21 13:18:18;;;;;;;;;;;;;;;;;;8480973;27;27105;-73
2022/11/21 13:22:19;;;;;;;;;;;;;;;;;;8480630;27;27578;-74
2022/11/21 13:26:19;;;;;;;;;;;;;;;;;;8476713;27;27467;-73
2022/11/21 13:30:19;;;;;;;;;;;;;;;;;;8485568;27;27225;-73
2022/11/21 13:34:19;;;;;;;;;;;;;;;;;;8478521;27;27540;-72
2022/11/21 13:38:19;;;;;;;;;;;;;;;;;;8480387;27;27557;-73
2022/11/21 13:46:38;;;;;;;;;;;;;;;;;;8476496;27;27123;-76
2022/11/21 13:50:38;;;;;;;;;;;;;;;;;;8482791;27;27280;-75
2022/11/21 13:54:38;;;;;;;;;;;;;;;;;;8475828;27;29055;-74
2022/11/21 13:58:38;;;;;;;;;;;;;;;;;;8464302;27;28772;-74
2022/11/21 14:02:38;;;;;;;;;;;;;;;;;;8487843;27;27328;-72
2022/11/21 14:06:41;;;;;;;;;;;;;;;;;;8487073;27;27094;-73
2022/11/21 14:10:42;;;;;;;;;;;;;;;;;;8481916;27;27404;-73
2022/11/21 14:14:42;;;;;;;;;;;;;;;;;;8483041;27;27091;-74
2022/11/21 14:18:42;;;;;;;;;;;;;;;;;;8488024;27;27702;-73
2022/11/21 14:22:42;;;;;;;;;;;;;;;;;;8467853;27;28707;-74
2022/11/21 14:26:42;;;;;;;;;;;;;;;;;;8490830;27;28077;-74
2022/11/21 14:30:42;;;;;;;;;;;;;;;;;;8473006;27;28831;-74
2022/11/21 14:34:42;;;;;;;;;;;;;;;;;;8486456;27;27340;-72
2022/11/21 14:38:42;;;;;;;;;;;;;;;;;;8486421;27;27207;-74
2022/11/21 14:42:42;;;;;;;;;;;;;;;;;;8484018;27;28625;-75
2022/11/21 14:46:42;;;;;;;;;;;;;;;;;;8489115;27;27833;-74
2022/11/21 14:50:43;;;;;;;;;;;;;;;;;;8484418;27;27386;-75
2022/11/21 14:54:43;;;;;;;;;;;;;;;;;;8467765;27;28160;-73
2022/11/21 14:58:43;;;;;;;;;;;;;;;;;;8485009;27;28044;-73
2022/11/21 15:02:43;;;;;;;;;;;;;;;;;;8474187;27;28379;-72
2022/11/21 15:06:43;;;;;;;;;;;;;;;;;;8473569;27;27954;-73
2022/11/21 15:10:43;;;;;;;;;;;;;;;;;;8463923;27;28189;-73
2022/11/21 15:14:43;;;;;;;;;;;;;;;;;;8466130;27;28044;-74
2022/11/21 15:18:43;;;;;;;;;;;;;;;;;;8485761;27;27417;-72
2022/11/21 15:22:43;;;;;;;;;;;;;;;;;;8463255;27;28199;-72
2022/11/21 15:26:43;;;;;;;;;;;;;;;;;;8483587;27;28391;-73
2022/11/21 15:30:47;;;;;;;;;;;;;;;;;;8470079;27;29587;-74
2022/11/21 15:34:47;;;;;;;;;;;;;;;;;;8465350;27;28944;-75
2022/11/21 15:38:47;;;;;;;;;;;;;;;;;;8473385;27;28238;-75
2022/11/21 15:42:47;;;;;;;;;;;;;;;;;;8465361;27;27509;-73
2022/11/21 15:46:47;;;;;;;;;;;;;;;;;;8478941;27;28171;-72
2022/11/21 15:50:47;;;;;;;;;;;;;;;;;;8485233;27;28787;-70
2022/11/21 15:54:47;;;;;;;;;;;;;;;;;;8485793;27;27149;-73
2022/11/21 15:58:47;;;;;;;;;;;;;;;;;;8485274;27;28114;-69
2022/11/21 16:02:47;;;;;;;;;;;;;;;;;;8483897;27;27436;-73
2022/11/21 16:06:47;;;;;;;;;;;;;;;;;;8481976;27;27939;-72
2022/11/21 16:10:48;;;;;;;;;;;;;;;;;;8470185;27;28611;-72
2022/11/21 16:32:06;;;;;;;;;;;;;;;;;;8474748;27;28321;-73
2022/11/21 16:36:06;;;;;;;;;;;;;;;;;;8479707;27;27426;-76
2022/11/21 16:40:06;;;;;;;;;;;;;;;;;;8480235;27;27718;-75
2022/11/21 16:44:06;;;;;;;;;;;;;;;;;;8486841;27;27193;-73
2022/11/21 16:48:06;;;;;;;;;;;;;;;;;;8467297;27;28786;-73
2022/11/21 16:52:07;;;;;;;;;;;;;;;;;;8475916;27;27403;-75
2022/11/21 16:56:07;;;;;;;;;;;;;;;;;;8473833;27;27975;-73
2022/11/21 17:00:07;;;;;;;;;;;;;;;;;;8481063;27;27314;-73
2022/11/21 17:04:08;;;;;;;;;;;;;;;;;;8473778;27;27209;-73
2022/11/21 17:08:09;;;;;;;;;;;;;;;;;;8462723;27;27232;-73
2022/11/21 17:12:09;;;;;;;;;;;;;;;;;;8478415;27;28257;-72
2022/11/21 17:16:09;;;;;;;;;;;;;;;;;;8479735;27;27131;-73
2022/11/21 17:20:09;;;;;;;;;;;;;;;;;;8480465;27;27440;-72
2022/11/21 17:24:09;;;;;;;;;;;;;;;;;;8473340;27;27501;-72
2022/11/21 17:28:09;;;;;;;;;;;;;;;;;;8481120;27;27673;-72
2022/11/21 17:32:09;;;;;;;;;;;;;;;;;;8457666;27;28545;-73
2022/11/21 17:36:09;;;;;;;;;;;;;;;;;;8477953;27;27379;-70
2022/11/21 17:40:10;;;;;;;;;;;;;;;;;;8457804;27;28278;-70
2022/11/21 17:44:11;;;;;;;;;;;;;;;;;;8469528;27;28706;-72
2022/11/21 17:48:11;;;;;;;;;;;;;;;;;;8466516;27;29904;-72
2022/11/21 17:52:11;;;;;;;;;;;;;;;;;;8463262;27;29082;-72
2022/11/21 17:56:11;;;;;;;;;;;;;;;;;;8477308;27;27899;-74
2022/11/21 18:00:11;;;;;;;;;;;;;;;;;;8486618;27;27495;-73
2022/11/21 18:04:13;;;;;;;;;;;;;;;;;;8479729;27;27456;-72
2022/11/21 18:08:13;;;;;;;;;;;;;;;;;;8460060;27;28364;-73
2022/11/21 18:12:13;;;;;;;;;;;;;;;;;;8471121;27;28841;-73
2022/11/21 18:16:13;;;;;;;;;;;;;;;;;;8463413;27;29365;-76
2022/11/21 18:20:13;;;;;;;;;;;;;;;;;;8477241;27;27388;-73
2022/11/21 18:24:13;;;;;;;;;;;;;;;;;;8473717;27;27678;-72
2022/11/21 18:28:13;;;;;;;;;;;;;;;;;;8467886;27;28625;-75
2022/11/21 18:32:13;;;;;;;;;;;;;;;;;;8461747;27;28561;-76
2022/11/21 18:36:13;;;;;;;;;;;;;;;;;;8478125;27;27185;-73
2022/11/21 18:40:13;;;;;;;;;;;;;;;;;;8462864;27;30028;-72
2022/11/21 18:44:14;;;;;;;;;;;;;;;;;;8480304;27;27999;-73
2022/11/21 18:48:14;;;;;;;;;;;;;;;;;;8466747;27;29769;-74
2022/11/21 18:52:14;;;;;;;;;;;;;;;;;;8485613;27;27155;-75
2022/11/21 18:56:14;;;;;;;;;;;;;;;;;;8482762;27;27383;-75
2022/11/21 19:00:14;;;;;;;;;;;;;;;;;;8471821;27;29830;-75
2022/11/21 19:04:15;;;;;;;;;;;;;;;;;;8484201;27;27320;-74
2022/11/21 19:08:15;;;;;;;;;;;;;;;;;;8481854;27;27163;-75
2022/11/21 19:12:16;;;;;;;;;;;;;;;;;;8489076;27;28583;-76
2022/11/21 19:16:16;;;;;;;;;;;;;;;;;;8484502;27;28247;-73
2022/11/21 19:20:16;;;;;;;;;;;;;;;;;;8479719;27;27297;-75
2022/11/21 19:24:18;;;;;;;;;;;;;;;;;;8484164;27;27717;-75
2022/11/21 19:28:18;;;;;;;;;;;;;;;;;;8483261;27;27382;-75
2022/11/21 19:32:18;;;;;;;;;;;;;;;;;;8481233;27;27155;-76
2022/11/21 19:36:18;;;;;;;;;;;;;;;;;;8483729;27;27329;-75
2022/11/21 19:40:18;;;;;;;;;;;;;;;;;;8466138;27;28355;-76
2022/11/21 19:44:18;;;;;;;;;;;;;;;;;;8487031;27;27603;-74
2022/11/21 19:48:18;;;;;;;;;;;;;;;;;;8488077;27;27107;-75
2022/11/21 19:52:18;;;;;;;;;;;;;;;;;;8485068;27;27192;-75
2022/11/21 19:56:18;;;;;;;;;;;;;;;;;;8485405;27;27730;-75
2022/11/21 20:00:21;;;;;;;;;;;;;;;;;;8463697;27;29734;-74
2022/11/21 20:04:21;;;;;;;;;;;;;;;;;;8483462;27;27537;-76
2022/11/21 20:08:21;;;;;;;;;;;;;;;;;;8484870;27;28200;-74
2022/11/21 20:12:21;;;;;;;;;;;;;;;;;;8461526;27;28547;-76
2022/11/21 20:16:21;;;;;;;;;;;;;;;;;;8484279;27;27400;-76
2022/11/21 20:20:21;;;;;;;;;;;;;;;;;;8468295;27;27346;-75
2022/11/21 20:24:21;;;;;;;;;;;;;;;;;;8474213;27;28784;-75
2022/11/21 20:28:22;;;;;;;;;;;;;;;;;;8468192;27;28307;-76
2022/11/21 20:32:22;;;;;;;;;;;;;;;;;;8462021;27;28308;-73
2022/11/21 20:36:22;;;;;;;;;;;;;;;;;;8487103;27;27226;-71
2022/11/21 20:40:22;;;;;;;;;;;;;;;;;;8477594;27;27120;-76
2022/11/21 20:44:22;;;;;;;;;;;;;;;;;;8465731;27;27284;-75
2022/11/21 20:48:22;;;;;;;;;;;;;;;;;;8468074;27;28844;-75
2022/11/21 20:52:22;;;;;;;;;;;;;;;;;;8470698;27;28076;-75
2022/11/21 20:56:22;;;;;;;;;;;;;;;;;;8475099;27;27756;-72
2022/11/21 21:00:22;;;;;;;;;;;;;;;;;;8465833;27;29406;-75
2022/11/21 21:04:22;;;;;;;;;;;;;;;;;;8476403;27;27912;-75
2022/11/21 21:08:23;;;;;;;;;;;;;;;;;;8464504;27;27629;-74
2022/11/21 21:12:23;;;;;;;;;;;;;;;;;;8483549;27;27351;-74
2022/11/21 21:16:24;;;;;;;;;;;;;;;;;;8477421;27;27636;-72
2022/11/21 21:20:24;;;;;;;;;;;;;;;;;;8463574;27;28708;-70
2022/11/21 21:24:24;;;;;;;;;;;;;;;;;;8480324;27;27447;-73
2022/11/21 21:28:24;;;;;;;;;;;;;;;;;;8481345;27;27279;-74
2022/11/21 21:32:24;;;;;;;;;;;;;;;;;;8476110;27;27404;-73
2022/11/21 21:36:24;;;;;;;;;;;;;;;;;;8462399;27;29891;-73
2022/11/21 21:40:24;;;;;;;;;;;;;;;;;;8475682;27;27177;-73
2022/11/21 21:44:24;;;;;;;;;;;;;;;;;;8472777;27;27429;-73
2022/11/21 21:48:25;;;;;;;;;;;;;;;;;;8475255;27;27190;-74
2022/11/21 21:52:25;;;;;;;;;;;;;;;;;;8479297;27;28069;-72
2022/11/21 21:56:25;;;;;;;;;;;;;;;;;;8479860;27;28085;-73
2022/11/21 22:00:25;;;;;;;;;;;;;;;;;;8475623;27;27334;-73
2022/11/21 22:04:25;;;;;;;;;;;;;;;;;;8479113;27;27842;-73
2022/11/21 22:08:26;;;;;;;;;;;;;;;;;;8478394;27;27591;-73
2022/11/21 22:12:26;;;;;;;;;;;;;;;;;;8475528;27;27358;-71
2022/11/21 22:16:26;;;;;;;;;;;;;;;;;;8478089;27;27673;-72
2022/11/21 22:20:26;;;;;;;;;;;;;;;;;;8467957;27;29563;-70
2022/11/21 22:24:26;;;;;;;;;;;;;;;;;;8485006;27;27866;-73
2022/11/21 22:28:27;;;;;;;;;;;;;;;;;;8482957;27;27498;-73
2022/11/21 22:32:27;;;;;;;;;;;;;;;;;;8486514;27;27699;-74
2022/11/21 22:36:27;;;;;;;;;;;;;;;;;;8477062;27;28332;-73
2022/11/21 22:40:28;;;;;;;;;;;;;;;;;;8485538;27;27421;-72
2022/11/21 22:44:28;;;;;;;;;;;;;;;;;;8488414;27;27419;-74
2022/11/21 22:48:28;;;;;;;;;;;;;;;;;;8482195;27;27455;-74
2022/11/21 22:52:28;;;;;;;;;;;;;;;;;;8483471;27;27459;-73
2022/11/21 22:56:28;;;;;;;;;;;;;;;;;;8484400;27;27240;-74
2022/11/21 23:00:28;;;;;;;;;;;;;;;;;;8481252;27;27618;-73
2022/11/21 23:04:28;;;;;;;;;;;;;;;;;;8481785;27;27405;-74
2022/11/21 23:08:28;;;;;;;;;;;;;;;;;;8468080;27;29090;-72
2022/11/21 23:12:28;;;;;;;;;;;;;;;;;;8483428;27;27579;-73
2022/11/21 23:16:28;;;;;;;;;;;;;;;;;;8463828;27;28734;-73
2022/11/21 23:20:28;;;;;;;;;;;;;;;;;;8467581;27;28198;-74
2022/11/21 23:24:28;;;;;;;;;;;;;;;;;;8465723;27;28136;-73
2022/11/21 23:28:29;;;;;;;;;;;;;;;;;;8483466;27;27197;-74
2022/11/21 23:32:29;;;;;;;;;;;;;;;;;;8462345;27;28741;-74
2022/11/21 23:36:29;;;;;;;;;;;;;;;;;;8469623;27;27932;-74
2022/11/21 23:40:29;;;;;;;;;;;;;;;;;;8473334;27;27911;-71
2022/11/21 23:44:29;;;;;;;;;;;;;;;;;;8484574;27;27104;-74
2022/11/21 23:48:29;;;;;;;;;;;;;;;;;;8460982;27;27128;-74
2022/11/21 23:52:29;;;;;;;;;;;;;;;;;;8465451;27;28623;-73
2022/11/21 23:56:29;;;;;;;;;;;;;;;;;;8471006;27;28459;-73
